createdAt,value
2023-02-17T00:00:39.262Z,10.60
2023-02-17T00:03:40.980Z,11.40
2023-02-17T00:06:42.540Z,10.50
2023-02-17T00:09:44.061Z,10.80
2023-02-17T00:12:46.131Z,12.30
2023-02-17T00:15:47.640Z,10.60
2023-02-17T00:18:52.601Z,10.90
2023-02-17T00:21:58.474Z,10.60
2023-02-17T00:24:59.959Z,10.70
2023-02-17T00:28:01.429Z,10.40
2023-02-17T00:31:07.297Z,10.50
2023-02-17T00:34:08.801Z,10.90
2023-02-17T00:37:10.284Z,10.70
2023-02-17T00:40:15.038Z,10.80
2023-02-17T00:43:16.505Z,10.80
2023-02-17T00:46:18.489Z,10.70
2023-02-17T00:49:21.909Z,10.80
2023-02-17T00:52:23.523Z,11.90
2023-02-17T00:55:26.014Z,10.70
2023-02-17T00:58:27.574Z,10.80
2023-02-17T01:01:32.235Z,10.90
2023-02-17T01:04:33.932Z,10.90
2023-02-17T01:07:37.149Z,11.20
2023-02-17T01:10:40.964Z,10.70
2023-02-17T01:13:42.436Z,10.90
2023-02-17T01:16:45.435Z,10.60
2023-02-17T01:19:46.910Z,12.10
2023-02-17T01:22:48.383Z,10.80
2023-02-17T01:25:50.622Z,10.70
2023-02-17T01:28:52.621Z,10.70
2023-02-17T01:31:54.087Z,10.40
2023-02-17T01:34:55.602Z,10.40
2023-02-17T01:37:57.086Z,10.50
2023-02-17T01:40:58.740Z,10.50
2023-02-17T01:44:06.353Z,10.30
2023-02-17T01:47:12.551Z,10.80
2023-02-17T01:50:14.541Z,10.50
2023-02-17T01:53:18.490Z,10.40
2023-02-17T01:56:20.645Z,10.60
2023-02-17T01:59:22.316Z,10.20
2023-02-17T02:02:24.017Z,10.40
2023-02-17T02:05:25.584Z,10.30
2023-02-17T02:08:29.831Z,10.60
2023-02-17T02:11:31.510Z,10.30
2023-02-17T02:14:32.993Z,10.30
2023-02-17T02:17:53.349Z,10.50
2023-02-17T02:21:00.828Z,10.50
2023-02-17T02:24:21.400Z,10.40
2023-02-17T02:27:45.714Z,10.40
2023-02-17T02:31:01.781Z,10.70
2023-02-17T02:34:05.565Z,10.60
2023-02-17T02:37:27.277Z,10.80
2023-02-17T02:40:30.944Z,10.30
2023-02-17T02:43:32.467Z,10.80
2023-02-17T02:46:33.957Z,10.60
2023-02-17T02:49:36.497Z,10.60
2023-02-17T02:52:41.022Z,10.70
2023-02-17T02:55:52.253Z,10.40
2023-02-17T02:59:09.023Z,10.60
2023-02-17T03:02:18.105Z,10.40
2023-02-17T03:05:30.075Z,10.90
2023-02-17T03:08:43.742Z,10.80
2023-02-17T03:11:46.079Z,10.70
2023-02-17T03:14:52.786Z,11.80
2023-02-17T03:17:56.753Z,10.70
2023-02-17T03:21:02.125Z,10.80
2023-02-17T03:24:04.033Z,10.50
2023-02-17T03:27:05.540Z,11.30
2023-02-17T03:30:07.722Z,11.10
2023-02-17T03:33:09.267Z,10.90
2023-02-17T03:36:10.761Z,10.90
2023-02-17T03:39:12.305Z,10.70
2023-02-17T03:42:13.752Z,10.70
2023-02-17T03:45:15.242Z,10.80
2023-02-17T03:48:16.692Z,10.80
2023-02-17T03:51:22.186Z,10.60
2023-02-17T03:54:23.672Z,10.90
2023-02-17T03:57:25.196Z,10.90
2023-02-17T04:00:26.701Z,11.10
2023-02-17T04:03:28.200Z,11.30
2023-02-17T04:06:29.674Z,11.20
2023-02-17T04:09:31.184Z,10.70
2023-02-17T04:12:32.649Z,11.00
2023-02-17T04:15:34.165Z,10.80
2023-02-17T04:18:36.162Z,10.70
2023-02-17T04:21:37.804Z,11.10
2023-02-17T04:24:39.413Z,10.70
2023-02-17T04:27:40.890Z,11.20
2023-02-17T04:30:43.565Z,10.90
2023-02-17T04:33:45.257Z,11.10
2023-02-17T04:36:46.757Z,11.20
2023-02-17T04:39:48.229Z,11.40
2023-02-17T04:42:49.711Z,11.10
2023-02-17T04:45:51.287Z,10.90
2023-02-17T04:48:52.776Z,11.20
2023-02-17T04:51:54.289Z,11.10
2023-02-17T04:54:55.749Z,10.60
2023-02-17T04:57:57.341Z,11.20
2023-02-17T05:00:59.573Z,10.90
2023-02-17T05:04:01.129Z,10.90
2023-02-17T05:07:02.931Z,10.90
2023-02-17T05:10:04.505Z,11.00
2023-02-17T05:13:06.023Z,11.00
2023-02-17T05:16:07.832Z,10.60
2023-02-17T05:19:09.514Z,10.90
2023-02-17T05:22:10.969Z,10.70
2023-02-17T05:25:12.478Z,13.10
2023-02-17T05:28:13.961Z,10.80
2023-02-17T05:31:15.528Z,11.20
2023-02-17T05:34:17.046Z,11.20
2023-02-17T05:37:18.706Z,11.30
2023-02-17T05:40:20.261Z,11.30
2023-02-17T05:43:21.718Z,11.30
2023-02-17T05:46:23.284Z,11.20
2023-02-17T05:49:24.980Z,11.00
2023-02-17T05:52:26.491Z,10.90
2023-02-17T05:55:28.003Z,11.30
2023-02-17T05:58:30.021Z,11.10
2023-02-17T06:01:31.547Z,11.00
2023-02-17T06:04:33.069Z,11.00
2023-02-17T06:07:34.561Z,11.00
2023-02-17T06:10:36.149Z,13.40
2023-02-17T06:13:37.650Z,11.00
2023-02-17T06:16:39.144Z,10.80
2023-02-17T06:19:40.628Z,11.90
2023-02-17T06:22:42.294Z,11.20
2023-02-17T06:25:43.823Z,11.30
2023-02-17T06:28:45.317Z,11.40
2023-02-17T06:31:46.888Z,11.10
2023-02-17T06:34:48.573Z,11.10
2023-02-17T06:37:50.159Z,11.30
2023-02-17T06:40:51.719Z,11.10
2023-02-17T06:43:53.202Z,11.20
2023-02-17T06:46:54.673Z,11.60
2023-02-17T06:49:56.128Z,11.30
2023-02-17T06:52:57.589Z,11.00
2023-02-17T06:55:59.064Z,11.20
2023-02-17T06:59:01.186Z,10.90
2023-02-17T07:02:02.951Z,9.40
2023-02-17T07:05:04.655Z,10.60
2023-02-17T07:08:06.610Z,10.80
2023-02-17T07:11:08.836Z,10.80
2023-02-17T07:14:10.385Z,10.80
2023-02-17T07:17:11.866Z,10.90
2023-02-17T07:20:13.562Z,12.80
2023-02-17T07:23:15.223Z,10.90
2023-02-17T07:26:16.672Z,10.80
2023-02-17T07:29:18.180Z,10.60
2023-02-17T07:32:19.651Z,10.90
2023-02-17T07:35:21.193Z,10.90
2023-02-17T07:38:22.662Z,10.70
2023-02-17T07:41:25.133Z,10.90
2023-02-17T07:44:27.678Z,10.60
2023-02-17T07:47:29.231Z,10.80
2023-02-17T07:50:30.741Z,10.50
2023-02-17T07:53:32.372Z,10.90
2023-02-17T07:56:33.902Z,12.90
2023-02-17T07:59:35.387Z,10.80
2023-02-17T08:02:36.871Z,10.90
2023-02-17T08:05:39.519Z,10.90
2023-02-17T08:08:59.945Z,10.80
2023-02-17T08:12:20.082Z,11.00
2023-02-17T08:15:21.756Z,11.10
2023-02-17T08:18:23.277Z,11.70
2023-02-17T08:21:26.059Z,10.90
2023-02-17T08:24:27.591Z,10.90
2023-02-17T08:27:29.087Z,12.80
2023-02-17T08:30:30.717Z,11.50
2023-02-17T08:33:32.302Z,11.40
2023-02-17T08:36:34.150Z,11.30
2023-02-17T08:39:35.966Z,11.30
2023-02-17T08:42:39.022Z,13.20
2023-02-17T08:45:40.596Z,11.60
2023-02-17T08:48:42.476Z,11.30
2023-02-17T08:51:44.045Z,11.40
2023-02-17T08:54:45.682Z,11.60
2023-02-17T08:57:47.213Z,11.50
2023-02-17T09:00:48.732Z,11.60
2023-02-17T09:03:50.955Z,11.50
2023-02-17T09:06:53.472Z,11.70
2023-02-17T09:09:55.005Z,11.80
2023-02-17T09:12:56.506Z,11.40
2023-02-17T09:15:58.320Z,11.50
2023-02-17T09:18:59.949Z,11.70
2023-02-17T09:22:01.534Z,13.40
2023-02-17T09:25:03.677Z,11.90
2023-02-17T09:28:05.687Z,11.80
2023-02-17T09:31:11.382Z,12.10
2023-02-17T09:34:14.027Z,12.00
2023-02-17T09:37:17.660Z,13.90
2023-02-17T09:40:24.686Z,12.20
2023-02-17T09:43:28.402Z,12.00
2023-02-17T09:46:35.792Z,12.30
2023-02-17T09:49:43.294Z,12.20
2023-02-17T09:53:01.108Z,12.60
2023-02-17T09:56:04.980Z,12.80
2023-02-17T09:59:42.328Z,12.20
2023-02-17T10:02:55.980Z,12.80
2023-02-17T10:06:05.445Z,12.50
2023-02-17T10:09:16.567Z,12.60
2023-02-17T10:12:30.308Z,12.90
2023-02-17T10:15:34.953Z,14.10
2023-02-17T10:18:41.580Z,12.90
2023-02-17T10:21:45.978Z,12.50
2023-02-17T10:24:47.525Z,12.60
2023-02-17T10:28:10.431Z,13.20
2023-02-17T10:31:19.383Z,13.00
2023-02-17T10:34:26.442Z,12.90
2023-02-17T10:37:32.966Z,13.00
2023-02-17T10:40:34.443Z,12.60
2023-02-17T10:43:35.981Z,15.10
2023-02-17T10:46:40.361Z,12.70
2023-02-17T10:49:45.655Z,13.10
2023-02-17T10:52:47.494Z,12.40
2023-02-17T10:55:58.398Z,13.20
2023-02-17T10:59:06.444Z,12.70
2023-02-17T11:02:22.870Z,13.00
2023-02-17T11:05:29.486Z,13.50
2023-02-17T11:08:39.296Z,13.40
2023-02-17T11:11:48.077Z,13.00
2023-02-17T11:14:51.820Z,12.90
2023-02-17T11:17:53.789Z,14.30
2023-02-17T11:21:03.643Z,13.10
2023-02-17T11:24:05.740Z,13.20
2023-02-17T11:27:11.447Z,12.90
2023-02-17T11:30:18.690Z,13.10
2023-02-17T11:33:39.691Z,13.50
2023-02-17T11:36:43.642Z,12.90
2023-02-17T11:39:47.000Z,13.80
2023-02-17T11:42:55.334Z,13.50
2023-02-17T11:46:09.021Z,13.70
2023-02-17T11:49:29.454Z,13.60
2023-02-17T11:52:30.941Z,13.80
2023-02-17T11:55:40.264Z,13.90
2023-02-17T11:58:56.798Z,14.10
2023-02-17T12:01:58.409Z,14.00
2023-02-17T12:05:04.910Z,13.60
2023-02-17T12:08:27.289Z,13.90
2023-02-17T12:11:37.458Z,13.50
2023-02-17T12:15:01.550Z,13.80
2023-02-17T12:18:05.871Z,13.80
2023-02-17T12:21:19.519Z,13.80
2023-02-17T12:24:39.803Z,14.10
2023-02-17T12:27:51.049Z,14.20
2023-02-17T12:31:03.576Z,13.90
2023-02-17T12:34:05.168Z,13.70
2023-02-17T12:37:11.156Z,15.00
2023-02-17T12:40:21.498Z,14.00
2023-02-17T12:43:22.986Z,13.80
2023-02-17T12:46:28.594Z,15.20
2023-02-17T12:49:34.255Z,15.80
2023-02-17T12:52:40.808Z,13.80
2023-02-17T12:55:52.857Z,13.80
2023-02-17T12:58:56.356Z,13.70
2023-02-17T13:02:00.651Z,15.30
2023-02-17T13:05:04.658Z,14.10
2023-02-17T13:08:09.465Z,13.90
2023-02-17T13:11:12.981Z,14.10
2023-02-17T13:14:26.131Z,16.00
2023-02-17T13:17:34.639Z,13.90
2023-02-17T13:20:50.739Z,13.60
2023-02-17T13:24:08.835Z,14.20
2023-02-17T13:27:33.733Z,14.50
2023-02-17T13:30:39.694Z,13.90
2023-02-17T13:33:49.074Z,14.00
2023-02-17T13:36:50.844Z,14.10
2023-02-17T13:39:52.470Z,13.70
2023-02-17T13:42:54.699Z,14.20
2023-02-17T13:46:03.925Z,14.00
2023-02-17T13:49:06.119Z,14.60
2023-02-17T13:52:09.228Z,14.00
2023-02-17T13:55:17.989Z,15.80
2023-02-17T13:58:25.795Z,13.90
2023-02-17T14:01:28.624Z,14.10
2023-02-17T14:04:31.168Z,13.80
2023-02-17T14:07:34.198Z,13.90
2023-02-17T14:10:35.975Z,14.20
2023-02-17T14:13:38.583Z,13.80
2023-02-17T14:16:41.583Z,13.80
2023-02-17T14:19:47.103Z,14.20
2023-02-17T14:23:03.881Z,14.30
2023-02-17T14:26:10.166Z,14.10
2023-02-17T14:29:15.490Z,13.70
2023-02-17T14:32:27.370Z,13.50
2023-02-17T14:35:28.860Z,13.70
2023-02-17T14:38:32.380Z,13.80
2023-02-17T14:41:34.019Z,13.70
2023-02-17T14:44:35.514Z,13.60
2023-02-17T14:47:36.991Z,15.60
2023-02-17T14:50:47.834Z,13.50
2023-02-17T14:53:49.761Z,13.30
2023-02-17T14:57:06.132Z,15.20
2023-02-17T15:00:12.015Z,13.20
2023-02-17T15:03:13.493Z,12.90
2023-02-17T15:06:16.485Z,12.90
2023-02-17T15:09:23.481Z,13.20
2023-02-17T15:12:27.818Z,12.70
2023-02-17T15:15:29.710Z,13.10
2023-02-17T15:18:31.205Z,12.80
2023-02-17T15:21:34.333Z,12.70
2023-02-17T15:24:36.015Z,12.70
2023-02-17T15:27:37.478Z,12.40
2023-02-17T15:30:39.055Z,12.40
2023-02-17T15:33:41.169Z,12.30
2023-02-17T15:36:43.158Z,13.40
2023-02-17T15:39:44.615Z,12.20
2023-02-17T15:42:48.937Z,12.30
2023-02-17T15:45:50.447Z,12.20
2023-02-17T15:48:52.314Z,12.00
2023-02-17T15:51:53.788Z,12.40
2023-02-17T15:54:55.460Z,12.10
2023-02-17T15:57:59.148Z,12.10
2023-02-17T16:01:03.678Z,11.90
2023-02-17T16:04:06.193Z,12.10
2023-02-17T16:07:07.676Z,12.40
2023-02-17T16:10:10.233Z,12.10
2023-02-17T16:13:14.502Z,11.90
2023-02-17T16:16:20.333Z,13.30
2023-02-17T16:19:22.195Z,12.40
2023-02-17T16:22:23.985Z,11.90
2023-02-17T16:25:26.186Z,12.10
2023-02-17T16:28:28.265Z,12.20
2023-02-17T16:31:32.315Z,12.30
2023-02-17T16:34:34.584Z,12.10
2023-02-17T16:37:36.113Z,12.20
2023-02-17T16:40:40.041Z,12.00
2023-02-17T16:43:41.733Z,12.10
2023-02-17T16:46:50.602Z,12.10
2023-02-17T16:49:52.599Z,12.20
2023-02-17T16:52:55.019Z,12.00
2023-02-17T16:55:56.572Z,12.20
2023-02-17T16:58:58.020Z,12.00
2023-02-17T17:01:59.476Z,11.90
2023-02-17T17:05:00.937Z,12.40
2023-02-17T17:08:02.739Z,12.50
2023-02-17T17:11:04.279Z,12.20
2023-02-17T17:14:05.789Z,12.10
2023-02-17T17:17:09.692Z,12.00
2023-02-17T17:20:13.494Z,11.90
2023-02-17T17:23:15.098Z,12.30
2023-02-17T17:26:31.636Z,12.30
2023-02-17T17:29:33.191Z,12.40
2023-02-17T17:32:34.671Z,11.80
2023-02-17T17:35:36.435Z,11.90
2023-02-17T17:38:38.468Z,12.20
2023-02-17T17:41:39.997Z,12.10
2023-02-17T17:44:41.671Z,12.20
2023-02-17T17:47:43.245Z,11.90
2023-02-17T17:50:45.134Z,11.90
2023-02-17T17:53:46.815Z,12.30
2023-02-17T17:56:48.341Z,11.90
2023-02-17T17:59:49.848Z,13.50
2023-02-17T18:02:51.334Z,12.30
2023-02-17T18:05:52.836Z,12.10
2023-02-17T18:08:56.196Z,11.80
2023-02-17T18:11:58.744Z,11.90
2023-02-17T18:15:02.655Z,13.90
2023-02-17T18:18:04.263Z,11.90
2023-02-17T18:21:05.938Z,12.80
2023-02-17T18:24:07.722Z,12.20
2023-02-17T18:27:09.170Z,11.70
2023-02-17T18:30:12.022Z,11.80
2023-02-17T18:33:14.424Z,12.20
2023-02-17T18:36:24.895Z,11.60
2023-02-17T18:39:26.428Z,12.10
2023-02-17T18:42:27.946Z,11.90
2023-02-17T18:45:29.941Z,12.00
2023-02-17T18:48:31.836Z,11.90
2023-02-17T18:51:33.404Z,12.00
2023-02-17T18:54:35.014Z,11.80
2023-02-17T18:57:36.968Z,11.60
2023-02-17T19:00:38.462Z,11.60
2023-02-17T19:03:39.929Z,11.30
2023-02-17T19:06:41.430Z,11.90
2023-02-17T19:09:42.884Z,12.10
2023-02-17T19:12:44.388Z,11.90
2023-02-17T19:15:45.950Z,11.50
2023-02-17T19:18:47.622Z,12.00
2023-02-17T19:21:49.125Z,13.00
2023-02-17T19:24:52.214Z,11.70
2023-02-17T19:27:53.703Z,11.80
2023-02-17T19:30:56.023Z,12.30
2023-02-17T19:33:57.538Z,11.70
2023-02-17T19:36:59.002Z,12.00
2023-02-17T19:40:00.748Z,12.00
2023-02-17T19:43:02.325Z,11.80
2023-02-17T19:46:04.185Z,12.00
2023-02-17T19:49:05.908Z,12.10
2023-02-17T19:52:07.638Z,11.90
2023-02-17T19:55:09.965Z,12.10
2023-02-17T19:58:11.465Z,11.90
2023-02-17T20:01:14.376Z,13.50
2023-02-17T20:04:16.369Z,12.30
2023-02-17T20:07:17.919Z,9.90
2023-02-17T20:10:19.591Z,12.10
2023-02-17T20:13:21.066Z,12.20
2023-02-17T20:16:22.628Z,11.80
2023-02-17T20:19:24.190Z,13.80
2023-02-17T20:22:25.725Z,11.60
2023-02-17T20:25:27.431Z,12.00
2023-02-17T20:28:28.915Z,11.90
2023-02-17T20:31:30.526Z,12.20
2023-02-17T20:34:33.365Z,12.00
2023-02-17T20:37:34.849Z,12.10
2023-02-17T20:40:36.320Z,12.10
2023-02-17T20:43:38.425Z,13.60
2023-02-17T20:46:41.430Z,12.00
2023-02-17T20:49:43.087Z,12.00
2023-02-17T20:52:45.241Z,12.00
2023-02-17T20:55:47.405Z,13.70
2023-02-17T20:58:49.146Z,12.00
2023-02-17T21:01:50.719Z,12.90
2023-02-17T21:04:52.509Z,11.80
2023-02-17T21:07:55.365Z,12.50
2023-02-17T21:10:56.889Z,11.90
2023-02-17T21:13:58.398Z,12.50
2023-02-17T21:16:59.925Z,12.40
2023-02-17T21:20:01.460Z,12.00
2023-02-17T21:23:03.254Z,12.60
2023-02-17T21:26:09.462Z,12.50
2023-02-17T21:29:11.158Z,12.10
2023-02-17T21:32:12.720Z,14.00
2023-02-17T21:35:18.539Z,12.10
2023-02-17T21:38:30.410Z,14.10
2023-02-17T21:41:39.483Z,12.30
2023-02-17T21:45:13.754Z,12.10
2023-02-17T21:48:22.356Z,12.30
2023-02-17T21:51:24.591Z,11.90
2023-02-17T21:54:28.610Z,13.40
2023-02-17T21:57:39.391Z,12.20
2023-02-17T22:00:41.124Z,11.50
2023-02-17T22:03:52.058Z,14.10
2023-02-17T22:06:56.422Z,12.30
2023-02-17T22:10:02.121Z,12.40
2023-02-17T22:13:06.039Z,11.80
2023-02-17T22:16:09.481Z,11.90
2023-02-17T22:19:13.688Z,9.00
2023-02-17T22:22:15.156Z,13.00
2023-02-17T22:25:16.715Z,11.50
2023-02-17T22:28:18.191Z,11.50
2023-02-17T22:31:21.209Z,11.40
2023-02-17T22:34:23.146Z,11.60
2023-02-17T22:37:24.834Z,11.90
2023-02-17T22:40:26.498Z,10.80
2023-02-17T22:43:28.046Z,11.80
2023-02-17T22:46:29.598Z,11.70
2023-02-17T22:49:31.089Z,11.60
2023-02-17T22:52:33.907Z,11.80
2023-02-17T22:55:35.375Z,11.50
2023-02-17T22:58:36.858Z,13.20
2023-02-17T23:01:38.670Z,11.40
2023-02-17T23:04:40.229Z,11.70
2023-02-17T23:07:41.924Z,13.40
2023-02-17T23:10:43.651Z,11.60
2023-02-17T23:13:45.272Z,12.40
2023-02-17T23:16:46.836Z,11.60
2023-02-17T23:19:48.713Z,11.40
2023-02-17T23:22:50.622Z,11.50
2023-02-17T23:25:53.759Z,11.60
2023-02-17T23:28:56.068Z,11.60
2023-02-17T23:31:58.009Z,11.80
2023-02-17T23:34:59.821Z,12.00
2023-02-17T23:38:01.280Z,12.80
2023-02-17T23:41:02.801Z,12.00
2023-02-17T23:44:04.805Z,11.70
2023-02-17T23:47:06.313Z,11.50
2023-02-17T23:50:08.050Z,11.40
2023-02-17T23:53:09.617Z,11.30
2023-02-17T23:56:13.251Z,12.10
2023-02-17T23:59:14.825Z,11.40
